sensor_id;sensor_type;location;lat;lon;timestamp;P1;durP1;ratioP1;P2;durP2;ratioP2
54539;SDS011;40438;52.992;18.604;2024-03-23T00:55:18;21.55;;;9.48;;
54539;SDS011;40438;52.992;18.604;2024-03-23T00:57:44;21.30;;;8.43;;
54539;SDS011;40438;52.992;18.604;2024-03-23T01:00:10;20.17;;;8.50;;
54539;SDS011;40438;52.992;18.604;2024-03-23T01:02:36;18.55;;;8.02;;
54539;SDS011;40438;52.992;18.604;2024-03-23T01:05:02;26.15;;;7.82;;
54539;SDS011;40438;52.992;18.604;2024-03-23T01:07:28;13.82;;;6.30;;
54539;SDS011;40438;52.992;18.604;2024-03-23T01:09:55;12.35;;;4.47;;
54539;SDS011;40438;52.992;18.604;2024-03-23T01:12:21;10.65;;;4.38;;
54539;SDS011;40438;52.992;18.604;2024-03-23T01:14:47;12.57;;;3.58;;
54539;SDS011;40438;52.992;18.604;2024-03-23T01:17:12;8.35;;;3.17;;
54539;SDS011;40438;52.992;18.604;2024-03-23T01:19:38;9.52;;;3.22;;
54539;SDS011;40438;52.992;18.604;2024-03-23T01:22:04;11.90;;;3.70;;
54539;SDS011;40438;52.992;18.604;2024-03-23T01:24:30;7.15;;;3.45;;
54539;SDS011;40438;52.992;18.604;2024-03-23T01:26:57;7.93;;;3.47;;
54539;SDS011;40438;52.992;18.604;2024-03-23T01:29:23;11.93;;;4.15;;
54539;SDS011;40438;52.992;18.604;2024-03-23T01:31:49;7.53;;;3.47;;
54539;SDS011;40438;52.992;18.604;2024-03-23T01:34:14;12.90;;;3.28;;
54539;SDS011;40438;52.992;18.604;2024-03-23T01:36:40;11.13;;;3.40;;
54539;SDS011;40438;52.992;18.604;2024-03-23T01:39:06;8.13;;;2.72;;
54539;SDS011;40438;52.992;18.604;2024-03-23T01:41:32;15.30;;;2.97;;
54539;SDS011;40438;52.992;18.604;2024-03-23T01:43:59;11.85;;;2.90;;
54539;SDS011;40438;52.992;18.604;2024-03-23T01:46:30;9.80;;;2.83;;
54539;SDS011;40438;52.992;18.604;2024-03-23T01:48:56;11.73;;;3.17;;
54539;SDS011;40438;52.992;18.604;2024-03-23T01:51:22;9.38;;;3.03;;
54539;SDS011;40438;52.992;18.604;2024-03-23T01:53:48;8.57;;;2.63;;
54539;SDS011;40438;52.992;18.604;2024-03-23T01:56:13;10.88;;;2.67;;
54539;SDS011;40438;52.992;18.604;2024-03-23T01:58:39;9.65;;;2.17;;
54539;SDS011;40438;52.992;18.604;2024-03-23T02:01:06;7.15;;;2.53;;
54539;SDS011;40438;52.992;18.604;2024-03-23T02:03:32;10.68;;;2.53;;
54539;SDS011;40438;52.992;18.604;2024-03-23T02:05:58;6.03;;;2.25;;
54539;SDS011;40438;52.992;18.604;2024-03-23T02:08:24;9.30;;;2.47;;
54539;SDS011;40438;52.992;18.604;2024-03-23T02:10:50;10.38;;;3.10;;
54539;SDS011;40438;52.992;18.604;2024-03-23T02:13:17;11.40;;;2.83;;
54539;SDS011;40438;52.992;18.604;2024-03-23T02:15:43;9.35;;;2.83;;
54539;SDS011;40438;52.992;18.604;2024-03-23T02:18:10;11.32;;;2.67;;
54539;SDS011;40438;52.992;18.604;2024-03-23T02:20:36;13.07;;;3.50;;
54539;SDS011;40438;52.992;18.604;2024-03-23T02:23:04;12.60;;;2.25;;
54539;SDS011;40438;52.992;18.604;2024-03-23T02:25:29;5.05;;;1.90;;
54539;SDS011;40438;52.992;18.604;2024-03-23T02:27:55;8.93;;;1.92;;
54539;SDS011;40438;52.992;18.604;2024-03-23T02:30:21;13.23;;;2.33;;
54539;SDS011;40438;52.992;18.604;2024-03-23T02:32:47;18.73;;;2.80;;
54539;SDS011;40438;52.992;18.604;2024-03-23T02:35:12;3.20;;;1.75;;
54539;SDS011;40438;52.992;18.604;2024-03-23T02:37:38;11.30;;;2.47;;
54539;SDS011;40438;52.992;18.604;2024-03-23T02:40:06;7.82;;;2.22;;
54539;SDS011;40438;52.992;18.604;2024-03-23T02:42:32;13.15;;;2.80;;
54539;SDS011;40438;52.992;18.604;2024-03-23T02:44:58;10.35;;;2.10;;
54539;SDS011;40438;52.992;18.604;2024-03-23T02:47:24;11.52;;;3.35;;
54539;SDS011;40438;52.992;18.604;2024-03-23T02:49:49;8.20;;;2.65;;
54539;SDS011;40438;52.992;18.604;2024-03-23T02:52:15;4.80;;;2.33;;
54539;SDS011;40438;52.992;18.604;2024-03-23T02:54:41;4.70;;;2.10;;
54539;SDS011;40438;52.992;18.604;2024-03-23T02:57:08;10.10;;;2.97;;
54539;SDS011;40438;52.992;18.604;2024-03-23T02:59:34;7.22;;;2.72;;
54539;SDS011;40438;52.992;18.604;2024-03-23T03:02:00;12.05;;;2.83;;
54539;SDS011;40438;52.992;18.604;2024-03-23T03:04:25;9.10;;;2.30;;
54539;SDS011;40438;52.992;18.604;2024-03-23T03:06:51;14.00;;;2.33;;
54539;SDS011;40438;52.992;18.604;2024-03-23T03:09:17;8.73;;;2.55;;
54539;SDS011;40438;52.992;18.604;2024-03-23T03:11:42;8.18;;;2.13;;
54539;SDS011;40438;52.992;18.604;2024-03-23T03:14:10;8.48;;;2.33;;
54539;SDS011;40438;52.992;18.604;2024-03-23T03:16:35;10.10;;;2.47;;
54539;SDS011;40438;52.992;18.604;2024-03-23T03:19:01;8.95;;;2.40;;
54539;SDS011;40438;52.992;18.604;2024-03-23T03:21:27;11.85;;;2.47;;
54539;SDS011;40438;52.992;18.604;2024-03-23T03:23:53;14.57;;;3.00;;
54539;SDS011;40438;52.992;18.604;2024-03-23T03:26:18;10.15;;;2.72;;
54539;SDS011;40438;52.992;18.604;2024-03-23T03:28:44;6.60;;;2.03;;
54539;SDS011;40438;52.992;18.604;2024-03-23T03:31:11;13.57;;;2.47;;
54539;SDS011;40438;52.992;18.604;2024-03-23T03:33:37;7.22;;;2.78;;
54539;SDS011;40438;52.992;18.604;2024-03-23T03:36:03;9.27;;;2.10;;
54539;SDS011;40438;52.992;18.604;2024-03-23T03:38:29;9.32;;;2.70;;
54539;SDS011;40438;52.992;18.604;2024-03-23T03:40:55;10.55;;;2.60;;
54539;SDS011;40438;52.992;18.604;2024-03-23T03:43:21;14.07;;;2.75;;
54539;SDS011;40438;52.992;18.604;2024-03-23T03:45:51;8.73;;;2.83;;
54539;SDS011;40438;52.992;18.604;2024-03-23T03:48:18;7.93;;;2.30;;
54539;SDS011;40438;52.992;18.604;2024-03-23T03:50:44;6.47;;;2.30;;
54539;SDS011;40438;52.992;18.604;2024-03-23T03:53:10;12.45;;;2.35;;
54539;SDS011;40438;52.992;18.604;2024-03-23T03:55:35;10.65;;;3.03;;
54539;SDS011;40438;52.992;18.604;2024-03-23T03:58:01;12.63;;;3.10;;
54539;SDS011;40438;52.992;18.604;2024-03-23T04:00:27;9.10;;;3.30;;
54539;SDS011;40438;52.992;18.604;2024-03-23T04:02:53;9.65;;;2.20;;
54539;SDS011;40438;52.992;18.604;2024-03-23T04:05:20;14.98;;;3.22;;
54539;SDS011;40438;52.992;18.604;2024-03-23T04:07:46;15.48;;;3.08;;
54539;SDS011;40438;52.992;18.604;2024-03-23T04:10:11;12.55;;;3.28;;
54539;SDS011;40438;52.992;18.604;2024-03-23T04:12:37;10.10;;;3.13;;
54539;SDS011;40438;52.992;18.604;2024-03-23T04:15:03;14.50;;;3.65;;
54539;SDS011;40438;52.992;18.604;2024-03-23T04:17:29;8.15;;;3.05;;
54539;SDS011;40438;52.992;18.604;2024-03-23T04:19:55;8.30;;;3.00;;
54539;SDS011;40438;52.992;18.604;2024-03-23T04:22:23;10.13;;;3.20;;
54539;SDS011;40438;52.992;18.604;2024-03-23T04:24:49;14.38;;;3.80;;
54539;SDS011;40438;52.992;18.604;2024-03-23T04:27:15;16.77;;;3.75;;
54539;SDS011;40438;52.992;18.604;2024-03-23T04:29:41;12.65;;;2.50;;
54539;SDS011;40438;52.992;18.604;2024-03-23T04:32:06;6.35;;;2.33;;
54539;SDS011;40438;52.992;18.604;2024-03-23T04:34:32;13.45;;;3.50;;
54539;SDS011;40438;52.992;18.604;2024-03-23T04:36:58;12.57;;;2.58;;
54539;SDS011;40438;52.992;18.604;2024-03-23T04:39:25;13.20;;;3.30;;
54539;SDS011;40438;52.992;18.604;2024-03-23T04:41:51;10.93;;;2.60;;
54539;SDS011;40438;52.992;18.604;2024-03-23T04:44:16;10.65;;;3.30;;
54539;SDS011;40438;52.992;18.604;2024-03-23T04:46:42;9.15;;;2.60;;
54539;SDS011;40438;52.992;18.604;2024-03-23T04:49:08;8.82;;;2.75;;
54539;SDS011;40438;52.992;18.604;2024-03-23T04:51:35;16.00;;;3.53;;
54539;SDS011;40438;52.992;18.604;2024-03-23T04:54:02;11.30;;;3.22;;
54539;SDS011;40438;52.992;18.604;2024-03-23T04:56:32;17.42;;;3.85;;
54539;SDS011;40438;52.992;18.604;2024-03-23T04:58:58;11.80;;;3.47;;
54539;SDS011;40438;52.992;18.604;2024-03-23T05:01:23;12.88;;;3.80;;
54539;SDS011;40438;52.992;18.604;2024-03-23T05:03:50;14.32;;;3.15;;
54539;SDS011;40438;52.992;18.604;2024-03-23T05:06:16;12.85;;;3.95;;
54539;SDS011;40438;52.992;18.604;2024-03-23T05:08:41;10.70;;;3.63;;
54539;SDS011;40438;52.992;18.604;2024-03-23T05:11:07;19.92;;;3.95;;
54539;SDS011;40438;52.992;18.604;2024-03-23T05:13:34;13.30;;;2.92;;
54539;SDS011;40438;52.992;18.604;2024-03-23T05:16:00;13.98;;;6.55;;
54539;SDS011;40438;52.992;18.604;2024-03-23T05:18:26;14.40;;;6.00;;
54539;SDS011;40438;52.992;18.604;2024-03-23T05:20:55;12.75;;;4.75;;
54539;SDS011;40438;52.992;18.604;2024-03-23T05:23:21;19.45;;;5.65;;
54539;SDS011;40438;52.992;18.604;2024-03-23T05:25:46;13.88;;;3.90;;
54539;SDS011;40438;52.992;18.604;2024-03-23T05:28:12;12.25;;;3.50;;
54539;SDS011;40438;52.992;18.604;2024-03-23T05:30:39;10.40;;;3.42;;
54539;SDS011;40438;52.992;18.604;2024-03-23T05:33:05;12.38;;;3.47;;
54539;SDS011;40438;52.992;18.604;2024-03-23T05:35:31;13.07;;;3.17;;
54539;SDS011;40438;52.992;18.604;2024-03-23T05:37:57;10.35;;;3.63;;
54539;SDS011;40438;52.992;18.604;2024-03-23T05:40:22;8.02;;;3.58;;
54539;SDS011;40438;52.992;18.604;2024-03-23T05:42:48;10.40;;;3.95;;
54539;SDS011;40438;52.992;18.604;2024-03-23T05:45:14;10.25;;;3.25;;
54539;SDS011;40438;52.992;18.604;2024-03-23T05:47:41;11.63;;;3.63;;
54539;SDS011;40438;52.992;18.604;2024-03-23T05:50:07;10.90;;;3.50;;
54539;SDS011;40438;52.992;18.604;2024-03-23T05:52:33;12.88;;;3.67;;
54539;SDS011;40438;52.992;18.604;2024-03-23T05:54:59;12.35;;;3.10;;
54539;SDS011;40438;52.992;18.604;2024-03-23T05:57:25;10.65;;;3.65;;
54539;SDS011;40438;52.992;18.604;2024-03-23T05:59:51;15.13;;;4.50;;
54539;SDS011;40438;52.992;18.604;2024-03-23T06:02:16;12.45;;;5.25;;
54539;SDS011;40438;52.992;18.604;2024-03-23T06:04:44;13.52;;;4.63;;
54539;SDS011;40438;52.992;18.604;2024-03-23T06:07:10;16.75;;;3.20;;
54539;SDS011;40438;52.992;18.604;2024-03-23T06:09:36;17.67;;;4.47;;
54539;SDS011;40438;52.992;18.604;2024-03-23T06:12:02;18.33;;;4.95;;
54539;SDS011;40438;52.992;18.604;2024-03-23T06:14:28;16.85;;;4.32;;
54539;SDS011;40438;52.992;18.604;2024-03-23T06:16:54;13.85;;;3.38;;
54539;SDS011;40438;52.992;18.604;2024-03-23T06:19:20;11.38;;;3.67;;
54539;SDS011;40438;52.992;18.604;2024-03-23T06:21:47;13.13;;;3.53;;
54539;SDS011;40438;52.992;18.604;2024-03-23T06:24:12;12.95;;;3.33;;
54539;SDS011;40438;52.992;18.604;2024-03-23T06:26:38;13.70;;;3.03;;
54539;SDS011;40438;52.992;18.604;2024-03-23T06:29:04;13.55;;;4.47;;
54539;SDS011;40438;52.992;18.604;2024-03-23T06:31:30;9.98;;;3.45;;
54539;SDS011;40438;52.992;18.604;2024-03-23T06:33:56;6.07;;;3.38;;
54539;SDS011;40438;52.992;18.604;2024-03-23T06:36:21;13.57;;;3.83;;
54539;SDS011;40438;52.992;18.604;2024-03-23T06:38:49;9.60;;;2.90;;
54539;SDS011;40438;52.992;18.604;2024-03-23T06:41:14;23.50;;;4.75;;
54539;SDS011;40438;52.992;18.604;2024-03-23T06:43:40;12.02;;;4.80;;
54539;SDS011;40438;52.992;18.604;2024-03-23T06:46:06;16.75;;;5.43;;
54539;SDS011;40438;52.992;18.604;2024-03-23T06:48:32;25.92;;;6.00;;
54539;SDS011;40438;52.992;18.604;2024-03-23T06:50:57;12.02;;;4.10;;
54539;SDS011;40438;52.992;18.604;2024-03-23T06:53:23;22.48;;;4.15;;
54539;SDS011;40438;52.992;18.604;2024-03-23T06:55:51;10.40;;;3.88;;
54539;SDS011;40438;52.992;18.604;2024-03-23T06:58:18;8.68;;;2.70;;
54539;SDS011;40438;52.992;18.604;2024-03-23T07:00:44;9.38;;;2.60;;
54539;SDS011;40438;52.992;18.604;2024-03-23T07:03:10;11.57;;;3.33;;
54539;SDS011;40438;52.992;18.604;2024-03-23T07:05:36;11.05;;;3.10;;
54539;SDS011;40438;52.992;18.604;2024-03-23T07:08:02;26.73;;;5.82;;
54539;SDS011;40438;52.992;18.604;2024-03-23T07:10:28;11.57;;;3.00;;
54539;SDS011;40438;52.992;18.604;2024-03-23T07:12:55;9.38;;;3.40;;
54539;SDS011;40438;52.992;18.604;2024-03-23T07:15:21;17.08;;;3.65;;
54539;SDS011;40438;52.992;18.604;2024-03-23T07:17:46;4.70;;;2.63;;
54539;SDS011;40438;52.992;18.604;2024-03-23T07:20:12;12.13;;;3.03;;
54539;SDS011;40438;52.992;18.604;2024-03-23T07:22:38;7.45;;;3.15;;
54539;SDS011;40438;52.992;18.604;2024-03-23T07:25:04;9.95;;;2.53;;
54539;SDS011;40438;52.992;18.604;2024-03-23T07:27:31;11.15;;;2.58;;
54539;SDS011;40438;52.992;18.604;2024-03-23T07:29:58;10.23;;;2.65;;
54539;SDS011;40438;52.992;18.604;2024-03-23T07:32:24;9.90;;;3.03;;
54539;SDS011;40438;52.992;18.604;2024-03-23T07:34:49;7.10;;;2.60;;
54539;SDS011;40438;52.992;18.604;2024-03-23T07:37:15;15.65;;;3.20;;
54539;SDS011;40438;52.992;18.604;2024-03-23T07:39:41;15.88;;;3.90;;
54539;SDS011;40438;52.992;18.604;2024-03-23T07:42:07;9.43;;;3.00;;
54539;SDS011;40438;52.992;18.604;2024-03-23T07:44:32;12.63;;;3.50;;
54539;SDS011;40438;52.992;18.604;2024-03-23T07:47:00;14.95;;;3.60;;
54539;SDS011;40438;52.992;18.604;2024-03-23T07:49:26;9.30;;;3.20;;
54539;SDS011;40438;52.992;18.604;2024-03-23T07:51:52;65.28;;;8.60;;
54539;SDS011;40438;52.992;18.604;2024-03-23T07:54:18;27.90;;;6.18;;
54539;SDS011;40438;52.992;18.604;2024-03-23T07:56:43;13.90;;;4.43;;
54539;SDS011;40438;52.992;18.604;2024-03-23T07:59:09;15.55;;;5.05;;
54539;SDS011;40438;52.992;18.604;2024-03-23T08:01:35;18.30;;;5.35;;
54539;SDS011;40438;52.992;18.604;2024-03-23T08:04:02;13.25;;;4.78;;
54539;SDS011;40438;52.992;18.604;2024-03-23T08:06:28;13.15;;;5.28;;
54539;SDS011;40438;52.992;18.604;2024-03-23T08:08:55;15.80;;;4.55;;
54539;SDS011;40438;52.992;18.604;2024-03-23T08:11:22;9.90;;;3.65;;
54539;SDS011;40438;52.992;18.604;2024-03-23T08:13:47;16.83;;;3.35;;
54539;SDS011;40438;52.992;18.604;2024-03-23T08:16:13;11.45;;;3.58;;
54539;SDS011;40438;52.992;18.604;2024-03-23T08:18:39;11.50;;;3.53;;
54539;SDS011;40438;52.992;18.604;2024-03-23T08:21:06;15.82;;;3.50;;
54539;SDS011;40438;52.992;18.604;2024-03-23T08:23:33;21.88;;;4.25;;
54539;SDS011;40438;52.992;18.604;2024-03-23T08:25:59;9.50;;;3.15;;
54539;SDS011;40438;52.992;18.604;2024-03-23T08:28:26;8.38;;;3.42;;
54539;SDS011;40438;52.992;18.604;2024-03-23T08:30:52;9.02;;;3.03;;
54539;SDS011;40438;52.992;18.604;2024-03-23T08:33:18;12.30;;;3.65;;
54539;SDS011;40438;52.992;18.604;2024-03-23T08:35:52;12.88;;;3.35;;
54539;SDS011;40438;52.992;18.604;2024-03-23T08:38:20;7.53;;;2.80;;
54539;SDS011;40438;52.992;18.604;2024-03-23T08:40:46;14.70;;;4.10;;
54539;SDS011;40438;52.992;18.604;2024-03-23T08:43:12;8.52;;;3.33;;
54539;SDS011;40438;52.992;18.604;2024-03-23T08:45:37;13.77;;;3.10;;
54539;SDS011;40438;52.992;18.604;2024-03-23T08:48:04;11.77;;;3.13;;
54539;SDS011;40438;52.992;18.604;2024-03-23T08:50:30;6.82;;;3.45;;
54539;SDS011;40438;52.992;18.604;2024-03-23T08:52:56;13.38;;;3.58;;
54539;SDS011;40438;52.992;18.604;2024-03-23T08:55:23;10.57;;;3.30;;
54539;SDS011;40438;52.992;18.604;2024-03-23T08:57:49;13.77;;;4.07;;
54539;SDS011;40438;52.992;18.604;2024-03-23T09:00:15;12.80;;;3.85;;
54539;SDS011;40438;52.992;18.604;2024-03-23T09:02:41;14.63;;;4.03;;
54539;SDS011;40438;52.992;18.604;2024-03-23T09:05:06;14.18;;;3.60;;
54539;SDS011;40438;52.992;18.604;2024-03-23T09:07:32;8.57;;;3.03;;
54539;SDS011;40438;52.992;18.604;2024-03-23T09:09:58;13.38;;;3.55;;
54539;SDS011;40438;52.992;18.604;2024-03-23T09:12:25;9.57;;;3.78;;
54539;SDS011;40438;52.992;18.604;2024-03-23T09:14:51;13.82;;;3.50;;
54539;SDS011;40438;52.992;18.604;2024-03-23T09:17:17;11.55;;;2.75;;
54539;SDS011;40438;52.992;18.604;2024-03-23T09:19:43;9.68;;;3.08;;
54539;SDS011;40438;52.992;18.604;2024-03-23T09:22:08;7.95;;;3.05;;
54539;SDS011;40438;52.992;18.604;2024-03-23T09:24:34;6.03;;;2.55;;
54539;SDS011;40438;52.992;18.604;2024-03-23T09:27:00;8.20;;;2.60;;
54539;SDS011;40438;52.992;18.604;2024-03-23T09:29:27;8.57;;;3.15;;
54539;SDS011;40438;52.992;18.604;2024-03-23T09:31:53;8.20;;;2.63;;
54539;SDS011;40438;52.992;18.604;2024-03-23T09:34:19;11.18;;;3.25;;
54539;SDS011;40438;52.992;18.604;2024-03-23T09:36:45;8.65;;;3.80;;
54539;SDS011;40438;52.992;18.604;2024-03-23T09:39:10;7.55;;;2.63;;
54539;SDS011;40438;52.992;18.604;2024-03-23T09:41:36;9.48;;;2.90;;
54539;SDS011;40438;52.992;18.604;2024-03-23T09:44:02;13.75;;;3.40;;
54539;SDS011;40438;52.992;18.604;2024-03-23T09:46:29;10.13;;;3.60;;
54539;SDS011;40438;52.992;18.604;2024-03-23T09:48:55;18.35;;;3.70;;
54539;SDS011;40438;52.992;18.604;2024-03-23T09:51:22;11.18;;;3.67;;
54539;SDS011;40438;52.992;18.604;2024-03-23T09:53:49;12.10;;;3.28;;
54539;SDS011;40438;52.992;18.604;2024-03-23T09:56:15;10.00;;;4.18;;
54539;SDS011;40438;52.992;18.604;2024-03-23T09:58:41;16.92;;;3.03;;
54539;SDS011;40438;52.992;18.604;2024-03-23T10:01:07;13.20;;;2.40;;
54539;SDS011;40438;52.992;18.604;2024-03-23T10:03:42;10.07;;;2.35;;
54539;SDS011;40438;52.992;18.604;2024-03-23T10:06:09;5.65;;;1.92;;
54539;SDS011;40438;52.992;18.604;2024-03-23T10:08:34;10.75;;;2.60;;
54539;SDS011;40438;52.992;18.604;2024-03-23T10:11:12;9.65;;;2.10;;
54539;SDS011;40438;52.992;18.604;2024-03-23T10:13:38;10.55;;;3.05;;
54539;SDS011;40438;52.992;18.604;2024-03-23T10:16:07;6.95;;;2.92;;
54539;SDS011;40438;52.992;18.604;2024-03-23T10:18:33;9.23;;;2.75;;
54539;SDS011;40438;52.992;18.604;2024-03-23T10:21:10;5.85;;;1.80;;
54539;SDS011;40438;52.992;18.604;2024-03-23T10:23:36;6.32;;;2.58;;
54539;SDS011;40438;52.992;18.604;2024-03-23T10:26:15;7.53;;;2.47;;
54539;SDS011;40438;52.992;18.604;2024-03-23T10:28:51;7.43;;;2.10;;
54539;SDS011;40438;52.992;18.604;2024-03-23T10:31:18;5.97;;;2.72;;
54539;SDS011;40438;52.992;18.604;2024-03-23T10:33:44;10.73;;;2.47;;
54539;SDS011;40438;52.992;18.604;2024-03-23T10:36:12;9.50;;;2.38;;
54539;SDS011;40438;52.992;18.604;2024-03-23T10:38:38;6.93;;;2.53;;
54539;SDS011;40438;52.992;18.604;2024-03-23T10:41:06;8.63;;;2.30;;
54539;SDS011;40438;52.992;18.604;2024-03-23T10:43:33;5.00;;;2.10;;
54539;SDS011;40438;52.992;18.604;2024-03-23T10:46:00;9.05;;;2.63;;
54539;SDS011;40438;52.992;18.604;2024-03-23T10:48:25;7.60;;;2.05;;
54539;SDS011;40438;52.992;18.604;2024-03-23T10:50:51;8.00;;;2.42;;
54539;SDS011;40438;52.992;18.604;2024-03-23T10:53:19;8.70;;;2.90;;
54539;SDS011;40438;52.992;18.604;2024-03-23T10:55:46;8.65;;;2.35;;
54539;SDS011;40438;52.992;18.604;2024-03-23T10:58:12;8.35;;;3.13;;
54539;SDS011;40438;52.992;18.604;2024-03-23T11:00:38;8.55;;;3.45;;
54539;SDS011;40438;52.992;18.604;2024-03-23T11:05:57;17.77;;;3.70;;
54539;SDS011;40438;52.992;18.604;2024-03-23T11:08:31;12.35;;;3.90;;
54539;SDS011;40438;52.992;18.604;2024-03-23T11:13:43;8.35;;;2.97;;
54539;SDS011;40438;52.992;18.604;2024-03-23T11:16:15;12.25;;;4.10;;
54539;SDS011;40438;52.992;18.604;2024-03-23T11:18:42;7.95;;;3.45;;
54539;SDS011;40438;52.992;18.604;2024-03-23T11:21:08;6.47;;;3.78;;
54539;SDS011;40438;52.992;18.604;2024-03-23T11:23:36;9.07;;;4.55;;
54539;SDS011;40438;52.992;18.604;2024-03-23T11:26:02;8.77;;;4.00;;
54539;SDS011;40438;52.992;18.604;2024-03-23T11:28:32;13.25;;;4.35;;
54539;SDS011;40438;52.992;18.604;2024-03-23T11:30:57;8.13;;;3.55;;
54539;SDS011;40438;52.992;18.604;2024-03-23T11:33:23;8.07;;;2.78;;
54539;SDS011;40438;52.992;18.604;2024-03-23T11:35:49;11.32;;;3.90;;
54539;SDS011;40438;52.992;18.604;2024-03-23T11:38:15;6.50;;;2.97;;
54539;SDS011;40438;52.992;18.604;2024-03-23T11:40:43;4.82;;;2.75;;
54539;SDS011;40438;52.992;18.604;2024-03-23T11:43:12;10.82;;;3.60;;
54539;SDS011;40438;52.992;18.604;2024-03-23T11:45:39;6.72;;;3.05;;
54539;SDS011;40438;52.992;18.604;2024-03-23T11:48:08;6.47;;;2.53;;
54539;SDS011;40438;52.992;18.604;2024-03-23T11:50:36;4.63;;;2.00;;
54539;SDS011;40438;52.992;18.604;2024-03-23T11:53:11;5.00;;;2.00;;
54539;SDS011;40438;52.992;18.604;2024-03-23T11:55:39;4.93;;;2.65;;
54539;SDS011;40438;52.992;18.604;2024-03-23T11:58:06;9.73;;;3.20;;
54539;SDS011;40438;52.992;18.604;2024-03-23T12:00:32;4.50;;;1.95;;
54539;SDS011;40438;52.992;18.604;2024-03-23T12:02:59;6.60;;;2.17;;
54539;SDS011;40438;52.992;18.604;2024-03-23T12:05:26;3.35;;;1.52;;
54539;SDS011;40438;52.992;18.604;2024-03-23T12:07:52;3.63;;;1.70;;
54539;SDS011;40438;52.992;18.604;2024-03-23T12:10:18;5.13;;;2.28;;
54539;SDS011;40438;52.992;18.604;2024-03-23T12:12:44;4.68;;;2.40;;
54539;SDS011;40438;52.992;18.604;2024-03-23T12:15:12;6.60;;;2.65;;
54539;SDS011;40438;52.992;18.604;2024-03-23T12:17:40;6.25;;;2.65;;
54539;SDS011;40438;52.992;18.604;2024-03-23T12:20:06;7.82;;;1.95;;
54539;SDS011;40438;52.992;18.604;2024-03-23T12:22:32;4.03;;;2.10;;
54539;SDS011;40438;52.992;18.604;2024-03-23T12:24:58;7.57;;;2.03;;
54539;SDS011;40438;52.992;18.604;2024-03-23T12:27:24;6.93;;;2.10;;
54539;SDS011;40438;52.992;18.604;2024-03-23T12:29:49;3.80;;;1.83;;
54539;SDS011;40438;52.992;18.604;2024-03-23T12:32:17;6.13;;;2.28;;
54539;SDS011;40438;52.992;18.604;2024-03-23T12:34:42;6.68;;;2.50;;
54539;SDS011;40438;52.992;18.604;2024-03-23T12:37:08;5.78;;;2.90;;
54539;SDS011;40438;52.992;18.604;2024-03-23T12:39:34;8.43;;;2.78;;
54539;SDS011;40438;52.992;18.604;2024-03-23T12:42:00;5.72;;;2.58;;
54539;SDS011;40438;52.992;18.604;2024-03-23T12:44:26;8.18;;;3.85;;
54539;SDS011;40438;52.992;18.604;2024-03-23T12:46:52;6.53;;;3.45;;
54539;SDS011;40438;52.992;18.604;2024-03-23T12:49:19;8.30;;;3.88;;
54539;SDS011;40438;52.992;18.604;2024-03-23T12:51:46;5.72;;;3.42;;
54539;SDS011;40438;52.992;18.604;2024-03-23T12:54:18;6.22;;;3.22;;
54539;SDS011;40438;52.992;18.604;2024-03-23T12:56:43;6.78;;;3.00;;
54539;SDS011;40438;52.992;18.604;2024-03-23T12:59:11;6.25;;;2.30;;
54539;SDS011;40438;52.992;18.604;2024-03-23T13:01:36;5.70;;;2.60;;
54539;SDS011;40438;52.992;18.604;2024-03-23T13:04:02;4.43;;;2.15;;
54539;SDS011;40438;52.992;18.604;2024-03-23T13:06:30;5.72;;;2.70;;
54539;SDS011;40438;52.992;18.604;2024-03-23T13:08:55;4.57;;;2.33;;
54539;SDS011;40438;52.992;18.604;2024-03-23T13:11:21;3.97;;;2.30;;
54539;SDS011;40438;52.992;18.604;2024-03-23T13:13:47;6.20;;;2.47;;
54539;SDS011;40438;52.992;18.604;2024-03-23T13:16:13;7.00;;;3.65;;
54539;SDS011;40438;52.992;18.604;2024-03-23T13:18:38;8.10;;;3.13;;
54539;SDS011;40438;52.992;18.604;2024-03-23T13:21:04;9.60;;;3.22;;
54539;SDS011;40438;52.992;18.604;2024-03-23T13:23:31;10.40;;;3.55;;
54539;SDS011;40438;52.992;18.604;2024-03-23T13:25:57;11.43;;;4.60;;
54539;SDS011;40438;52.992;18.604;2024-03-23T13:28:23;11.52;;;5.22;;
54539;SDS011;40438;52.992;18.604;2024-03-23T13:30:52;12.05;;;5.00;;
54539;SDS011;40438;52.992;18.604;2024-03-23T13:33:18;8.13;;;4.15;;
54539;SDS011;40438;52.992;18.604;2024-03-23T13:35:50;6.47;;;3.72;;
54539;SDS011;40438;52.992;18.604;2024-03-23T13:38:16;7.03;;;3.85;;
54539;SDS011;40438;52.992;18.604;2024-03-23T13:40:50;11.43;;;4.25;;
54539;SDS011;40438;52.992;18.604;2024-03-23T13:43:20;10.30;;;3.65;;
54539;SDS011;40438;52.992;18.604;2024-03-23T13:45:46;6.90;;;3.70;;
54539;SDS011;40438;52.992;18.604;2024-03-23T13:48:12;8.98;;;4.03;;
54539;SDS011;40438;52.992;18.604;2024-03-23T13:50:38;8.23;;;4.05;;
54539;SDS011;40438;52.992;18.604;2024-03-23T13:53:04;8.35;;;3.05;;
54539;SDS011;40438;52.992;18.604;2024-03-23T13:55:30;10.38;;;4.68;;
54539;SDS011;40438;52.992;18.604;2024-03-23T13:57:57;11.63;;;4.70;;
54539;SDS011;40438;52.992;18.604;2024-03-23T14:00:23;8.15;;;3.78;;
54539;SDS011;40438;52.992;18.604;2024-03-23T14:02:48;8.18;;;3.80;;
54539;SDS011;40438;52.992;18.604;2024-03-23T14:05:14;5.85;;;2.95;;
54539;SDS011;40438;52.992;18.604;2024-03-23T14:07:40;9.07;;;4.35;;
54539;SDS011;40438;52.992;18.604;2024-03-23T14:10:06;5.70;;;2.70;;
54539;SDS011;40438;52.992;18.604;2024-03-23T14:12:32;9.73;;;3.63;;
54539;SDS011;40438;52.992;18.604;2024-03-23T14:14:59;6.57;;;3.00;;
54539;SDS011;40438;52.992;18.604;2024-03-23T14:17:25;9.10;;;3.60;;
54539;SDS011;40438;52.992;18.604;2024-03-23T14:19:51;9.70;;;4.25;;
54539;SDS011;40438;52.992;18.604;2024-03-23T14:22:17;8.43;;;3.40;;
54539;SDS011;40438;52.992;18.604;2024-03-23T14:24:42;5.72;;;2.67;;
54539;SDS011;40438;52.992;18.604;2024-03-23T14:27:08;9.35;;;3.22;;
54539;SDS011;40438;52.992;18.604;2024-03-23T14:29:34;4.55;;;2.88;;
54539;SDS011;40438;52.992;18.604;2024-03-23T14:32:01;9.52;;;3.22;;
54539;SDS011;40438;52.992;18.604;2024-03-23T14:34:27;8.73;;;3.72;;
54539;SDS011;40438;52.992;18.604;2024-03-23T14:36:53;10.02;;;3.60;;
54539;SDS011;40438;52.992;18.604;2024-03-23T14:39:22;6.15;;;3.03;;
54539;SDS011;40438;52.992;18.604;2024-03-23T14:41:48;7.88;;;3.03;;
54539;SDS011;40438;52.992;18.604;2024-03-23T14:44:15;8.43;;;3.42;;
54539;SDS011;40438;52.992;18.604;2024-03-23T14:46:41;8.10;;;3.13;;
54539;SDS011;40438;52.992;18.604;2024-03-23T14:49:08;8.00;;;3.60;;
54539;SDS011;40438;52.992;18.604;2024-03-23T14:51:34;13.18;;;5.68;;
54539;SDS011;40438;52.992;18.604;2024-03-23T14:53:59;10.10;;;4.88;;
54539;SDS011;40438;52.992;18.604;2024-03-23T14:56:25;14.70;;;6.28;;
54539;SDS011;40438;52.992;18.604;2024-03-23T14:58:52;7.22;;;3.10;;
54539;SDS011;40438;52.992;18.604;2024-03-23T15:01:18;6.70;;;2.80;;
54539;SDS011;40438;52.992;18.604;2024-03-23T15:03:44;7.43;;;3.15;;
54539;SDS011;40438;52.992;18.604;2024-03-23T15:06:11;9.27;;;3.10;;
54539;SDS011;40438;52.992;18.604;2024-03-23T15:08:37;7.30;;;2.58;;
54539;SDS011;40438;52.992;18.604;2024-03-23T15:11:03;6.25;;;2.58;;
54539;SDS011;40438;52.992;18.604;2024-03-23T15:13:29;5.47;;;2.72;;
54539;SDS011;40438;52.992;18.604;2024-03-23T15:15:55;11.75;;;4.30;;
54539;SDS011;40438;52.992;18.604;2024-03-23T15:18:20;21.55;;;7.25;;
54539;SDS011;40438;52.992;18.604;2024-03-23T15:20:51;8.70;;;3.38;;
54539;SDS011;40438;52.992;18.604;2024-03-23T15:23:19;7.05;;;2.65;;